Flatwoods, Kentucky
Current Conditions -  °F | °C
As of 2:51 AM on Tuesday 27 Jan 2015 (Local Time) from KHTS Reporting Station
Overcast Overcast  
Wind Chill: 13°   Ceiling: 3000
Heat Index: 20°   Visibility: 10mi
Dew Point: 16°   Wind: 5mph
Humidity: 85%   Direction: 30°NNE
Pressure: 29.91"   Gusts: NA
Location:  38.52°N, 82.72°W
Report Text: KHTS 270751Z 03004KT 10SM OVC030 M07/M09 A2991 RMK AO2 SLP138 T10671089
Loading
Personal Weather Stations






























Interactive Weather Map New forecast layout! Learn more

10-Day Weather Forecast

Advertisements
Track Severe Weather on mobile